Weather History for KSLB - November, 2011

Change the Weather History Date:

Wednesday, November 23, 2011

  Actual Average Record
Temperature  
Mean Temperature 35 °F -  
Max Temperature 43 °F 40 °F 60 °F (2006)
Min Temperature 27 °F 25 °F 5 °F (2013)
Degree Days  
Heating Degree Days 30    
Moisture  
Dew Point 32 °F    
Average Humidity 94    
Maximum Humidity 100    
Minimum Humidity 73    
Precipitation  
Precipitation 0.00 in - - ()
Sea Level Pressure  
Sea Level Pressure 30.11 in    
Wind  
Wind Speed 9 mph (South)    
Max Wind Speed 15 mph    
Max Gust Speed 18 mph    
Visibility 3 miles    
Events      
Averages and records for this station are not official NWS values.
T = Trace of Precipitation, MM = Missing Value Source: NWS Daily Summary

Daily Weather History Graph

Daily Weather History Graph

Search for Another Location

Airport or City:

Trip Planner

Search our weather history database for the weather conditions in past years. The results will help you decide how hot, cold, wet, or windy it might be!

Date:

Astronomy

Nov. 23, 2011 Rise Set
Actual Time 7:21 AM CST 4:52 PM CST
Civil Twilight 6:50 AM CST 5:23 PM CST
Nautical Twilight 6:16 AM CST 5:57 PM CST
Astronomical Twilight 5:42 AM CST 6:31 PM CST
Moon 5:26 AM CST (11/23) 3:35 PM CST (11/23)
Length of Visible Light 10h 32m
Length of Day
9h 30m
Waning Crescent, 3% of the Moon is Illuminated
Nov 23
Waning Crescent
Nov 25
New
Dec 2
First Quarter
Dec 10
Full
Dec 17
Last Quarter

Hourly Weather History & Observations

Time (CST) Temp. Windchill Dew Point Humidity Pressure Visibility Wind Dir Wind Speed Gust Speed Precip Events Conditions
12:15 AM 32.0 °F 26.4 °F 31.8 °F 99% 30.11 in 3.0 mi South 5.8 mph - N/A   Clear
12:35 AM 32.0 °F 26.4 °F 31.8 °F 99% 30.11 in 1.8 mi South 5.8 mph - N/A   Unknown
12:55 AM 30.9 °F 25.2 °F 30.9 °F 100% 30.11 in 0.2 mi SSW 5.8 mph - N/A   Unknown
1:15 AM 30.2 °F 24.3 °F 30.2 °F 100% 30.11 in 1.0 mi SW 5.8 mph - N/A   Unknown
1:35 AM 28.0 °F 20.0 °F 28.2 °F 100% 30.11 in 0.2 mi SSW 8.1 mph - N/A   Unknown
1:55 AM 27.9 °F 19.8 °F 28.0 °F 100% 30.11 in 0.2 mi SSW 8.1 mph - N/A   Mostly Cloudy
2:35 AM 28.9 °F 21.1 °F 29.1 °F 100% 30.11 in 1.5 mi South 8.1 mph - N/A   Unknown
3:15 AM 27.7 °F 18.8 °F 27.9 °F 100% 30.10 in 1.0 mi South 9.2 mph - N/A   Mostly Cloudy
3:35 AM - - - N/A% 30.09 in 0.5 mi South 9.2 mph - N/A   Mostly Cloudy
3:55 AM 27.9 °F 19.1 °F 27.9 °F 100% 30.09 in 1.8 mi South 9.2 mph - N/A   Unknown
4:15 AM 28.9 °F 22.8 °F 29.1 °F 100% 30.10 in 1.2 mi SSW 5.8 mph - N/A   Overcast
4:35 AM 28.8 °F 21.7 °F 28.8 °F 100% 30.10 in 0.2 mi South 6.9 mph - N/A   Overcast
5:15 AM 30.4 °F 24.5 °F 30.4 °F 100% 30.12 in 0.2 mi SSW 5.8 mph - N/A   Overcast
5:35 AM 31.1 °F 25.4 °F 31.3 °F 100% 30.12 in 0.2 mi SSW 5.8 mph - N/A   Overcast
5:55 AM 32.0 °F 23.6 °F 32.0 °F 100% 30.12 in 0.2 mi SSW 10.4 mph - N/A   Overcast
6:15 AM 32.0 °F 24.8 °F 32.0 °F 100% 30.12 in 0.2 mi SSW 8.1 mph - N/A   Overcast
6:35 AM 32.0 °F 23.0 °F 32.2 °F 100% 30.12 in 0.2 mi SSW 11.5 mph 17.3 mph N/A   Overcast
6:55 AM 32.0 °F 24.2 °F 32.0 °F 100% 30.12 in 0.2 mi SSW 9.2 mph - N/A   Overcast
7:15 AM 32.0 °F 24.2 °F 32.0 °F 100% 30.12 in 0.2 mi South 9.2 mph - N/A   Overcast
7:35 AM 32.0 °F 24.2 °F 32.0 °F 100% 30.12 in 0.2 mi South 9.2 mph - N/A   Overcast
7:55 AM 32.0 °F 23.6 °F 32.0 °F 100% 30.12 in 0.2 mi South 10.4 mph - N/A   Overcast
8:15 AM 32.0 °F 23.0 °F 32.2 °F 100% 30.12 in 0.2 mi South 11.5 mph - N/A   Overcast
8:35 AM 32.2 °F 22.7 °F 32.4 °F 100% 30.12 in 0.2 mi South 12.7 mph - N/A   Overcast
8:55 AM 32.4 °F 23.5 °F 32.5 °F 100% 30.12 in 0.2 mi South 11.5 mph - N/A   Overcast
9:15 AM 32.9 °F 23.2 °F 32.9 °F 100% 30.12 in 0.2 mi South 13.8 mph - N/A   Overcast
9:35 AM 33.3 °F 25.1 °F 33.3 °F 100% 30.14 in 0.2 mi South 10.4 mph - N/A   Overcast
9:55 AM 33.8 °F 25.8 °F 34.0 °F 100% 30.14 in 0.2 mi South 10.4 mph - N/A   Overcast
10:15 AM 33.8 °F 25.3 °F 34.0 °F 100% 30.14 in 0.5 mi South 11.5 mph - N/A   Overcast
10:35 AM 34.0 °F 26.0 °F 34.3 °F 100% 30.14 in 0.5 mi South 10.4 mph - N/A   Overcast
10:55 AM - - - N/A% 30.14 in 0.8 mi South 11.5 mph - N/A   Overcast
11:15 AM 34.9 °F 25.7 °F 35.1 °F 100% 30.14 in 0.8 mi South 13.8 mph - N/A   Overcast
11:35 AM 35.1 °F 27.4 °F 35.2 °F 100% 30.13 in 1.5 mi South 10.4 mph - N/A   Overcast
11:55 AM 35.8 °F 28.8 °F 35.8 °F 100% 30.13 in 2.5 mi SSW 9.2 mph - N/A   Overcast
12:15 PM 36.5 °F 28.7 °F 36.5 °F 100% 30.13 in 2.5 mi SSW 11.5 mph - N/A   Overcast
12:35 PM 37.0 °F 29.8 °F 36.9 °F 99% 30.12 in 2.5 mi South 10.4 mph - N/A   Overcast
12:55 PM 38.1 °F 30.7 °F 36.0 °F 92% 30.12 in 4.0 mi South 11.5 mph - N/A   Mostly Cloudy
1:15 PM 39.4 °F 32.3 °F 35.8 °F 87% 30.12 in 5.0 mi SSW 11.5 mph - N/A   Mostly Cloudy
1:35 PM 40.6 °F 34.8 °F 36.0 °F 83% 30.11 in 5.0 mi SSW 9.2 mph - N/A   Scattered Clouds
1:55 PM 41.7 °F 34.4 °F 36.1 °F 81% 30.10 in 7.0 mi SSW 13.8 mph 18.4 mph N/A   Clear
2:15 PM 42.6 °F 36.3 °F 36.5 °F 79% 30.10 in 7.0 mi South 11.5 mph - N/A   Clear
2:35 PM 43.5 °F 37.5 °F 36.5 °F 76% 30.09 in 10.0 mi South 11.5 mph - N/A   Clear
3:15 PM 43.7 °F 36.9 °F 36.0 °F 74% 30.08 in 10.0 mi South 13.8 mph - N/A   Clear
3:35 PM 43.5 °F 37.1 °F 35.2 °F 73% 30.08 in 10.0 mi South 12.7 mph - N/A   Clear
3:55 PM 43.2 °F 36.6 °F 34.9 °F 73% 30.09 in 10.0 mi South 12.7 mph - N/A   Clear
4:15 PM 42.4 °F 36.5 °F 34.7 °F 74% 30.08 in 10.0 mi South 10.4 mph - N/A   Clear
4:35 PM 40.8 °F 34.1 °F 34.3 °F 78% 30.08 in 10.0 mi South 11.5 mph - N/A   Clear
4:55 PM 38.7 °F 31.4 °F 33.1 °F 80% 30.08 in 10.0 mi South 11.5 mph - N/A   Clear
5:15 PM 36.7 °F 28.9 °F 32.2 °F 84% 30.07 in 10.0 mi South 11.5 mph - N/A   Clear
5:55 PM 32.9 °F 24.7 °F 30.6 °F 91% 30.09 in 7.0 mi SSW 10.4 mph - N/A   Clear
6:15 PM 31.1 °F 23.1 °F 29.1 °F 92% 30.09 in 7.0 mi South 9.2 mph - N/A   Clear
6:35 PM 31.5 °F 22.9 °F 29.8 °F 94% 30.08 in 7.0 mi South 10.4 mph - N/A   Clear
6:55 PM 31.6 °F 21.6 °F 30.0 °F 94% 30.08 in 7.0 mi South 13.8 mph - N/A   Clear
7:15 PM 31.8 °F 22.3 °F 30.4 °F 94% 30.08 in 7.0 mi South 12.7 mph - N/A   Clear
7:55 PM 32.0 °F 22.1 °F 31.1 °F 96% 30.08 in 5.0 mi South 13.8 mph - N/A   Clear
8:15 PM 31.6 °F 21.2 °F 30.9 °F 97% 30.07 in 4.0 mi South 15.0 mph - N/A   Clear
8:35 PM 31.6 °F 22.1 °F 30.9 °F 97% 30.08 in 4.0 mi South 12.7 mph - N/A   Clear
8:55 PM 30.4 °F 21.0 °F 30.0 °F 99% 30.08 in 3.0 mi South 11.5 mph - N/A   Clear
9:15 PM 30.2 °F 20.8 °F 30.0 °F 99% 30.08 in 3.0 mi South 11.5 mph - N/A   Clear
9:35 PM 30.0 °F 20.0 °F 29.8 °F 99% 30.08 in 3.0 mi South 12.7 mph - N/A   Clear
9:55 PM 29.8 °F 20.9 °F 29.8 °F 100% 30.07 in 2.5 mi South 10.4 mph - N/A   Clear
10:15 PM 29.8 °F 20.9 °F 29.8 °F 100% 30.06 in 2.5 mi South 10.4 mph - N/A   Clear
10:35 PM 29.3 °F 20.8 °F 29.3 °F 100% 30.06 in 2.0 mi South 9.2 mph - N/A   Clear
10:55 PM 30.0 °F 20.5 °F 30.0 °F 100% 30.05 in 2.5 mi South 11.5 mph - N/A   Clear
11:15 PM - - - N/A% 30.05 in 3.0 mi South 9.2 mph - N/A   Clear
11:35 PM 31.1 °F 23.7 °F 31.1 °F 100% 30.05 in 3.0 mi South 8.1 mph - N/A   Clear
11:55 PM 31.3 °F 23.9 °F 31.3 °F 100% 30.04 in 3.0 mi South 8.1 mph - N/A   Clear